Time;durP1;ratioP1;P1;durP2;ratioP2;P2;SDS_P1;SDS_P2;PMS_P1;PMS_P2;Temp;Humidity;BMP_temperature;BMP_pressure;BME280_temperature;BME280_humidity;BME280_pressure;Samples;Min_cycle;Max_cycle;Signal;HPM_P1;HPM_P2
2022/01/27 00:00:38;;;;;;;50.17;40.95;;;0.40;93.70;;;;;;5072251;28;20226;-72
2022/01/27 00:03:24;;;;;;;50.05;40.75;;;0.30;94.10;;;;;;5072696;28;20535;-72
2022/01/27 00:05:53;;;;;;;50.13;39.75;;;0.30;94.40;;;;;;5072210;28;20701;-72
2022/01/27 00:08:27;;;;;;;52.35;41.00;;;0.30;94.30;;;;;;5072451;28;20277;-72
2022/01/27 00:10:57;;;;;;;57.28;41.67;;;0.30;94.60;;;;;;5072209;28;20431;-72
2022/01/27 00:13:29;;;;;;;50.15;41.05;;;0.20;94.70;;;;;;5072698;28;20200;-72
2022/01/27 00:18:40;;;;;;;56.78;40.53;;;0.40;94.70;;;;;;5069649;28;20196;-72
2022/01/27 00:21:08;;;;;;;53.42;40.75;;;0.40;94.60;;;;;;5072200;28;20215;-72
2022/01/27 00:23:35;;;;;;;54.80;39.90;;;0.60;94.20;;;;;;5072280;28;20657;-72
2022/01/27 00:26:03;;;;;;;50.22;38.88;;;0.50;93.60;;;;;;5072243;28;20223;-71
2022/01/27 00:28:30;;;;;;;53.63;43.40;;;0.50;93.60;;;;;;5072267;28;20210;-72
2022/01/27 00:30:58;;;;;;;58.30;41.28;;;0.50;93.60;;;;;;5072027;28;20224;-71
2022/01/27 00:33:25;;;;;;;55.95;41.03;;;0.50;94.00;;;;;;5072368;28;20564;-72
2022/01/27 00:35:52;;;;;;;55.40;42.40;;;0.60;94.70;;;;;;5072208;28;20286;-72
2022/01/27 00:38:19;;;;;;;56.45;41.10;;;0.70;93.60;;;;;;5072117;28;20206;-72
2022/01/27 00:40:46;;;;;;;318.85;66.20;;;0.70;94.10;;;;;;5071964;28;20220;-72
2022/01/27 00:43:13;;;;;;;51.95;40.00;;;0.70;94.50;;;;;;5072246;28;20238;-72
2022/01/27 00:45:40;;;;;;;56.78;43.30;;;0.80;94.40;;;;;;5072070;28;20251;-72
2022/01/27 00:48:08;;;;;;;55.55;42.20;;;0.70;93.50;;;;;;5072040;28;20204;-72
2022/01/27 00:50:38;;;;;;;63.55;42.67;;;0.60;93.50;;;;;;5072092;28;20216;-72
2022/01/27 00:53:18;;;;;;;55.92;40.72;;;0.70;93.80;;;;;;5072102;28;20600;-71
2022/01/27 00:55:45;;;;;;;55.10;41.60;;;0.70;93.20;;;;;;5072122;28;20207;-71
2022/01/27 00:58:26;;;;;;;51.65;41.05;;;0.60;93.10;;;;;;5071801;28;20732;-71
2022/01/27 01:00:57;;;;;;;59.92;41.92;;;0.70;93.00;;;;;;5071772;28;20227;-71
2022/01/27 01:03:31;;;;;;;53.45;39.70;;;0.70;93.10;;;;;;5074481;28;20203;-71
2022/01/27 01:06:15;;;;;;;64.07;43.75;;;0.80;93.90;;;;;;5075463;28;20349;-72
2022/01/27 01:14:31;;;;;;;60.33;39.15;;;0.80;93.20;;;;;;5057902;28;20184;-72
2022/01/27 01:17:03;;;;;;;55.60;40.22;;;0.90;92.40;;;;;;5075525;28;20242;-72
2022/01/27 01:19:43;;;;;;;49.05;39.65;;;0.80;92.70;;;;;;5075218;28;20235;-71
2022/01/27 01:30:35;;;;;;;54.70;41.20;;;0.90;93.10;;;;;;5075001;28;20277;-71
2022/01/27 01:33:05;;;;;;;62.50;42.40;;;0.90;93.20;;;;;;5075638;28;20200;-71
2022/01/27 01:35:48;;;;;;;63.13;40.75;;;1.00;92.30;;;;;;5075376;28;20249;-71
2022/01/27 01:38:18;;;;;;;59.35;41.45;;;0.90;92.90;;;;;;5075171;28;20295;-71
2022/01/27 01:40:46;;;;;;;67.93;44.13;;;0.80;94.70;;;;;;5074957;28;20220;-71
2022/01/27 01:43:13;;;;;;;66.45;43.13;;;0.80;95.50;;;;;;5075202;28;20738;-71
2022/01/27 01:45:39;;;;;;;50.47;40.65;;;0.90;94.80;;;;;;5075051;28;20303;-71
2022/01/27 01:48:07;;;;;;;56.78;41.00;;;0.80;93.40;;;;;;5075202;28;20319;-71
2022/01/27 01:50:35;;;;;;;54.10;41.40;;;0.80;93.20;;;;;;5074486;28;20218;-71
2022/01/27 01:53:03;;;;;;;53.15;40.35;;;0.80;93.00;;;;;;5075104;28;20217;-71
2022/01/27 01:55:31;;;;;;;54.33;42.15;;;0.80;93.00;;;;;;5075149;28;20200;-71
2022/01/27 01:57:58;;;;;;;1999.90;668.95;;;0.90;93.90;;;;;;5074780;28;20199;-71
2022/01/27 02:00:25;;;;;;;58.08;41.78;;;0.90;95.70;;;;;;5074413;28;20231;-71
2022/01/27 02:02:53;;;;;;;59.33;39.95;;;1.10;95.50;;;;;;5074576;28;20287;-71
2022/01/27 02:05:22;;;;;;;56.25;41.53;;;1.10;94.70;;;;;;5074387;28;20208;-71
2022/01/27 02:08:12;;;;;;;51.90;39.20;;;1.20;93.60;;;;;;5074623;28;20200;-72
2022/01/27 02:17:58;;;;;;;55.40;40.85;;;1.20;93.60;;;;;;5074017;28;20270;-71
2022/01/27 02:19:17;;;;;;;52.78;39.90;;;1.20;93.00;;;;;;5032170;28;20263;-72
2022/01/27 02:21:52;;;;;;;51.10;38.40;;;1.20;93.80;;;;;;5056936;28;20736;-71
2022/01/27 02:24:20;;;;;;;1134.32;169.60;;;1.20;93.90;;;;;;5074399;28;20199;-71
2022/01/27 02:26:49;;;;;;;1999.90;399.65;;;1.20;93.90;;;;;;5074063;28;20220;-71
2022/01/27 02:29:16;;;;;;;54.13;42.05;;;1.20;97.10;;;;;;5073896;28;20250;-72
2022/01/27 02:31:44;;;;;;;47.97;37.85;;;1.30;95.10;;;;;;5074085;28;20226;-71
2022/01/27 02:34:10;;;;;;;50.15;39.40;;;1.20;93.40;;;;;;5073850;28;20202;-72
2022/01/27 02:36:37;;;;;;;52.40;38.33;;;1.10;92.90;;;;;;5073951;28;20588;-71
2022/01/27 02:39:08;;;;;;;48.55;37.85;;;1.10;91.90;;;;;;5073847;28;20202;-72
2022/01/27 02:41:41;;;;;;;48.17;41.15;;;1.10;91.00;;;;;;5073890;28;20306;-72
2022/01/27 02:44:08;;;;;;;46.25;38.30;;;1.10;91.50;;;;;;5073802;28;20195;-72
2022/01/27 02:46:41;;;;;;;46.55;39.15;;;1.10;89.80;;;;;;5073719;28;20215;-71
2022/01/27 02:49:08;;;;;;;44.78;37.45;;;1.00;90.00;;;;;;5073629;28;20211;-72
2022/01/27 02:51:36;;;;;;;44.63;39.75;;;1.00;89.30;;;;;;5073782;28;20218;-71
2022/01/27 02:54:03;;;;;;;44.17;37.83;;;0.90;89.50;;;;;;5073731;28;20196;-71
2022/01/27 02:56:32;;;;;;;49.33;38.28;;;0.80;89.70;;;;;;5073566;28;20547;-71
2022/01/27 02:58:59;;;;;;;141.73;46.35;;;0.80;90.00;;;;;;5073296;28;20235;-71
2022/01/27 03:01:25;;;;;;;61.40;41.10;;;0.90;90.10;;;;;;5073270;28;20219;-71
2022/01/27 03:03:52;;;;;;;44.85;37.88;;;0.90;93.70;;;;;;5073420;28;20756;-71
2022/01/27 03:06:19;;;;;;;44.60;39.13;;;0.90;93.30;;;;;;5073167;28;20226;-71
2022/01/27 03:08:46;;;;;;;47.50;39.22;;;1.00;91.80;;;;;;5073484;28;20232;-71
2022/01/27 03:11:18;;;;;;;46.30;38.15;;;1.00;91.20;;;;;;5073020;28;20274;-71
2022/01/27 03:13:49;;;;;;;42.90;38.20;;;1.10;90.00;;;;;;5073309;28;20196;-71
2022/01/27 03:16:16;;;;;;;58.00;40.22;;;1.20;89.60;;;;;;5073206;28;20620;-72
2022/01/27 03:18:43;;;;;;;44.83;39.97;;;1.10;89.40;;;;;;5073068;28;20196;-72
2022/01/27 03:21:10;;;;;;;42.08;37.63;;;1.10;89.60;;;;;;5072833;28;20227;-71
2022/01/27 03:23:37;;;;;;;45.33;37.88;;;1.00;89.10;;;;;;5073213;28;20196;-72
2022/01/27 03:26:04;;;;;;;41.60;37.15;;;0.80;91.10;;;;;;5072476;28;20707;-71
2022/01/27 03:28:31;;;;;;;43.38;38.78;;;0.80;91.40;;;;;;5072900;28;20223;-71
2022/01/27 03:30:59;;;;;;;44.65;36.65;;;0.80;90.60;;;;;;5072794;28;20319;-71
2022/01/27 03:33:26;;;;;;;42.55;37.85;;;1.00;90.30;;;;;;5073128;28;20607;-71
2022/01/27 03:35:53;;;;;;;44.72;39.95;;;0.90;89.00;;;;;;5073009;28;20668;-71
2022/01/27 03:38:20;;;;;;;42.55;38.25;;;1.00;88.90;;;;;;5072877;28;20636;-72
2022/01/27 03:40:47;;;;;;;40.20;36.05;;;0.80;88.10;;;;;;5072640;28;20251;-71
2022/01/27 03:43:14;;;;;;;41.60;37.40;;;0.60;88.10;;;;;;5072768;28;20279;-71
2022/01/27 03:45:41;;;;;;;40.60;36.15;;;0.50;88.60;;;;;;5072842;28;20226;-71
2022/01/27 03:48:09;;;;;;;40.13;36.38;;;0.40;88.70;;;;;;5072737;28;20202;-71
2022/01/27 03:50:36;;;;;;;40.83;36.65;;;0.30;88.90;;;;;;5072419;28;20759;-71
2022/01/27 03:53:04;;;;;;;43.33;37.55;;;0.30;89.30;;;;;;5072750;28;20222;-71
2022/01/27 03:55:31;;;;;;;40.90;36.95;;;0.50;89.20;;;;;;5072615;28;20736;-71
2022/01/27 03:57:58;;;;;;;40.35;36.25;;;0.50;88.90;;;;;;5072657;28;20727;-71
2022/01/27 04:00:25;;;;;;;43.63;38.03;;;0.50;88.70;;;;;;5072404;28;20596;-71
2022/01/27 04:02:58;;;;;;;41.10;37.03;;;0.60;88.50;;;;;;5072534;28;20748;-71
2022/01/27 04:05:32;;;;;;;41.72;37.55;;;0.60;88.50;;;;;;5072458;28;20621;-71
2022/01/27 04:07:59;;;;;;;39.78;35.90;;;0.60;88.30;;;;;;5072525;28;20202;-72
2022/01/27 04:10:27;;;;;;;40.25;36.10;;;0.60;88.60;;;;;;5072212;28;20903;-71
2022/01/27 04:12:53;;;;;;;41.60;37.22;;;0.60;89.60;;;;;;5072422;28;20202;-71
2022/01/27 04:15:21;;;;;;;39.20;35.30;;;0.70;91.00;;;;;;5072382;28;20191;-71
2022/01/27 04:17:47;;;;;;;43.60;38.80;;;0.70;95.30;;;;;;5072514;28;20196;-71
2022/01/27 04:20:15;;;;;;;74.70;41.05;;;0.70;93.00;;;;;;5072201;28;20224;-71
2022/01/27 04:22:43;;;;;;;75.47;38.03;;;0.80;92.30;;;;;;5072366;28;20283;-72
2022/01/27 04:25:12;;;;;;;42.83;38.40;;;0.80;91.70;;;;;;5072393;28;20657;-71
2022/01/27 04:27:42;;;;;;;355.90;78.50;;;0.90;91.10;;;;;;5072195;28;20273;-71
2022/01/27 04:30:15;;;;;;;527.95;89.50;;;0.90;96.10;;;;;;5072086;28;20224;-71
2022/01/27 04:32:46;;;;;;;44.05;38.92;;;0.90;96.50;;;;;;5072330;28;20202;-72
2022/01/27 04:35:17;;;;;;;41.90;37.50;;;1.00;95.20;;;;;;5072236;28;20200;-71
2022/01/27 04:37:58;;;;;;;42.40;36.85;;;1.00;92.80;;;;;;5075123;28;20188;-72
2022/01/27 04:40:31;;;;;;;43.65;37.25;;;1.20;92.60;;;;;;5075971;28;20247;-72
2022/01/27 04:43:04;;;;;;;42.65;37.72;;;1.10;91.40;;;;;;5076335;28;20203;-71
2022/01/27 04:45:38;;;;;;;46.40;41.70;;;1.10;91.00;;;;;;5076013;28;20210;-72
2022/01/27 04:48:11;;;;;;;1052.32;156.10;;;1.20;89.00;;;;;;5076047;28;20195;-72
2022/01/27 04:50:38;;;;;;;341.00;68.40;;;1.10;90.90;;;;;;5075908;28;20670;-72
2022/01/27 04:53:08;;;;;;;44.63;40.00;;;1.10;94.00;;;;;;5075948;28;20238;-71
2022/01/27 04:55:35;;;;;;;44.30;39.85;;;1.00;91.40;;;;;;5075877;28;20196;-71
2022/01/27 04:58:11;;;;;;;46.35;40.35;;;0.90;89.10;;;;;;5075798;28;20288;-72
2022/01/27 05:00:38;;;;;;;44.10;39.40;;;0.80;88.80;;;;;;5075571;28;20265;-71
2022/01/27 05:03:13;;;;;;;43.35;39.03;;;0.80;88.70;;;;;;5075786;28;20196;-72
2022/01/27 05:05:40;;;;;;;42.67;38.20;;;0.80;88.20;;;;;;5075524;28;20242;-71
2022/01/27 05:08:15;;;;;;;40.83;36.53;;;0.80;88.10;;;;;;5075470;28;20219;-71
2022/01/27 05:10:43;;;;;;;45.97;41.08;;;0.80;88.20;;;;;;5075366;28;20316;-71
2022/01/27 05:13:14;;;;;;;47.08;42.03;;;0.70;88.40;;;;;;5075686;28;20198;-71
2022/01/27 05:15:45;;;;;;;43.15;38.78;;;0.80;88.10;;;;;;5075650;28;20199;-71
2022/01/27 05:18:12;;;;;;;48.53;43.17;;;0.90;88.10;;;;;;5075398;28;20235;-71
2022/01/27 05:20:39;;;;;;;49.67;44.63;;;0.90;87.30;;;;;;5075220;28;20216;-71
2022/01/27 05:23:06;;;;;;;48.97;42.78;;;0.90;86.80;;;;;;5075375;28;20210;-71
2022/01/27 05:25:34;;;;;;;45.60;40.70;;;0.90;88.40;;;;;;5075321;28;20286;-71
2022/01/27 05:28:01;;;;;;;47.22;42.20;;;1.00;86.50;;;;;;5075330;28;20645;-72
2022/01/27 05:30:28;;;;;;;50.05;44.72;;;1.00;86.30;;;;;;5074913;28;20230;-71
2022/01/27 05:32:55;;;;;;;51.20;44.80;;;1.00;86.20;;;;;;5075298;28;20207;-71
2022/01/27 05:35:22;;;;;;;51.00;45.50;;;1.00;86.30;;;;;;5075219;28;20557;-71
2022/01/27 05:37:49;;;;;;;48.63;43.45;;;0.90;86.80;;;;;;5074907;28;20196;-72
2022/01/27 05:40:16;;;;;;;52.15;45.50;;;1.00;86.90;;;;;;5074790;28;20248;-71
2022/01/27 05:42:44;;;;;;;52.75;47.38;;;1.00;87.00;;;;;;5075061;28;20200;-71
2022/01/27 05:45:11;;;;;;;49.70;44.50;;;1.00;87.00;;;;;;5074972;28;20203;-72
2022/01/27 05:47:38;;;;;;;176.00;53.38;;;1.10;88.20;;;;;;5074814;28;20242;-72
2022/01/27 05:50:06;;;;;;;51.88;46.20;;;1.10;91.20;;;;;;5074206;28;20327;-72
2022/01/27 05:52:33;;;;;;;51.70;45.03;;;1.20;92.20;;;;;;5074867;28;20692;-71
2022/01/27 05:55:00;;;;;;;52.33;45.78;;;1.40;92.60;;;;;;5074733;28;20196;-72
2022/01/27 05:57:27;;;;;;;48.90;43.80;;;1.30;88.00;;;;;;5074656;28;20192;-72
2022/01/27 05:59:55;;;;;;;48.72;43.47;;;1.20;86.90;;;;;;5074419;28;20232;-72
2022/01/27 06:02:22;;;;;;;48.17;43.40;;;1.00;86.10;;;;;;5074781;28;20566;-72
2022/01/27 06:04:49;;;;;;;47.88;43.03;;;0.90;86.30;;;;;;5074416;28;20207;-71
2022/01/27 06:07:16;;;;;;;46.33;41.70;;;0.90;86.20;;;;;;5074280;28;20211;-71
2022/01/27 06:09:44;;;;;;;47.05;42.40;;;0.80;86.10;;;;;;5074390;28;20270;-71
2022/01/27 06:12:11;;;;;;;49.30;44.20;;;0.50;86.40;;;;;;5074335;28;20745;-71
2022/01/27 06:14:38;;;;;;;48.88;43.72;;;0.40;87.30;;;;;;5074638;28;20196;-71
2022/01/27 06:17:06;;;;;;;49.40;44.17;;;0.40;87.60;;;;;;5074261;28;20199;-71
2022/01/27 06:19:33;;;;;;;50.15;44.88;;;0.30;88.00;;;;;;5074070;28;20279;-71
2022/01/27 06:22:00;;;;;;;49.28;44.10;;;0.30;88.00;;;;;;5074282;28;20257;-71
2022/01/27 06:24:27;;;;;;;49.83;44.67;;;0.20;87.90;;;;;;5074231;28;20199;-72
2022/01/27 06:26:56;;;;;;;50.47;44.92;;;0.10;88.10;;;;;;5074110;28;20228;-71
2022/01/27 06:29:23;;;;;;;47.88;42.53;;;0.20;88.40;;;;;;5073824;28;20239;-71
2022/01/27 06:31:49;;;;;;;45.75;40.90;;;0.30;88.40;;;;;;5074140;28;20616;-71
2022/01/27 06:34:18;;;;;;;48.90;43.83;;;0.40;89.20;;;;;;5074059;28;20196;-71
2022/01/27 06:36:45;;;;;;;48.38;43.38;;;0.50;88.60;;;;;;5074072;28;20580;-71
2022/01/27 06:39:11;;;;;;;47.08;41.72;;;0.60;88.20;;;;;;5073858;28;20196;-71
2022/01/27 06:41:38;;;;;;;48.42;43.15;;;0.70;87.70;;;;;;5073879;28;20582;-71
2022/01/27 06:44:06;;;;;;;50.38;45.05;;;0.70;89.40;;;;;;5073787;28;20295;-71
2022/01/27 06:46:35;;;;;;;48.97;43.65;;;0.60;87.50;;;;;;5073570;28;20285;-71
2022/01/27 06:49:02;;;;;;;51.22;45.85;;;0.50;87.40;;;;;;5073734;28;20235;-71
2022/01/27 06:51:31;;;;;;;46.83;42.13;;;0.40;87.70;;;;;;5073566;28;20731;-71
2022/01/27 06:53:58;;;;;;;48.30;43.25;;;0.20;87.30;;;;;;5073564;28;20291;-71
2022/01/27 06:56:25;;;;;;;46.95;41.92;;;0.20;87.80;;;;;;5073420;28;20636;-71
2022/01/27 06:58:52;;;;;;;46.72;42.03;;;0.20;87.60;;;;;;5073281;28;20657;-71
2022/01/27 07:01:19;;;;;;;49.13;44.17;;;0.00;87.90;;;;;;5072330;28;20222;-71
2022/01/27 07:03:46;;;;;;;48.92;43.90;;;0.00;88.30;;;;;;5073490;28;20231;-71
2022/01/27 07:06:13;;;;;;;49.65;44.40;;;0.20;89.00;;;;;;5073185;28;20204;-71
2022/01/27 07:08:43;;;;;;;49.40;44.00;;;0.30;90.70;;;;;;5073256;28;20238;-71
2022/01/27 07:11:10;;;;;;;48.67;43.67;;;0.40;88.50;;;;;;5073011;28;20238;-71
2022/01/27 07:13:40;;;;;;;46.80;42.15;;;0.50;88.20;;;;;;5073147;28;20557;-71
2022/01/27 07:16:07;;;;;;;47.83;43.10;;;0.30;87.40;;;;;;5073216;28;20290;-71
2022/01/27 07:18:34;;;;;;;49.47;44.63;;;0.20;88.00;;;;;;5073112;28;20279;-72
2022/01/27 07:21:01;;;;;;;46.90;42.15;;;0.30;87.80;;;;;;5073004;28;20211;-71
2022/01/27 07:23:28;;;;;;;46.65;41.75;;;0.30;87.60;;;;;;5073170;28;20196;-71
2022/01/27 07:25:56;;;;;;;51.33;43.97;;;0.20;87.90;;;;;;5072906;28;20538;-72
2022/01/27 07:28:23;;;;;;;43.08;38.67;;;0.30;88.10;;;;;;5072885;28;20646;-71
2022/01/27 07:30:51;;;;;;;43.50;39.00;;;0.20;86.60;;;;;;5072747;28;20248;-71
2022/01/27 07:33:17;;;;;;;43.67;39.35;;;0.20;86.70;;;;;;5073020;28;20284;-71
2022/01/27 07:35:44;;;;;;;44.60;39.88;;;0.10;86.60;;;;;;5072895;28;20234;-71
2022/01/27 07:38:11;;;;;;;42.28;38.05;;;-0.10;87.10;;;;;;5072830;28;20204;-71
2022/01/27 07:40:38;;;;;;;45.97;40.92;;;0.10;87.40;;;;;;5072528;28;20729;-71
2022/01/27 07:43:09;;;;;;;44.15;39.75;;;0.20;86.60;;;;;;5072673;28;20200;-71
2022/01/27 07:45:36;;;;;;;44.83;40.22;;;0.20;86.40;;;;;;5072779;28;20203;-71
2022/01/27 07:48:03;;;;;;;46.33;41.63;;;0.00;87.20;;;;;;5072656;28;20215;-71
2022/01/27 07:50:31;;;;;;;44.17;39.38;;;0.10;87.60;;;;;;5072398;28;20308;-71
2022/01/27 07:52:58;;;;;;;46.47;41.63;;;0.10;86.90;;;;;;5072697;28;20295;-71
2022/01/27 07:55:24;;;;;;;44.13;39.53;;;-0.10;87.20;;;;;;5072566;28;20192;-71
2022/01/27 07:57:51;;;;;;;46.28;41.25;;;-0.10;87.60;;;;;;5072558;28;20295;-71
2022/01/27 08:00:20;;;;;;;45.60;38.42;;;-0.20;88.40;;;;;;5072296;28;20315;-71
2022/01/27 08:02:47;;;;;;;45.13;40.22;;;-0.10;88.40;;;;;;5072648;28;20226;-71
2022/01/27 08:05:14;;;;;;;49.80;42.85;;;0.00;87.80;;;;;;5072583;28;20206;-71
2022/01/27 08:07:41;;;;;;;52.75;42.83;;;-0.10;88.40;;;;;;5072171;28;20332;-71
2022/01/27 08:10:08;;;;;;;46.47;41.03;;;0.00;88.30;;;;;;5072274;28;20246;-71
2022/01/27 08:12:40;;;;;;;46.75;41.45;;;-0.10;87.80;;;;;;5072016;28;20202;-71
2022/01/27 08:15:07;;;;;;;47.60;41.05;;;-0.20;88.10;;;;;;5072513;28;20611;-71
2022/01/27 08:17:36;;;;;;;44.47;39.75;;;-0.30;88.30;;;;;;5072757;28;20565;-71
2022/01/27 08:20:03;;;;;;;43.60;39.08;;;-0.30;88.70;;;;;;5072196;28;20592;-71
2022/01/27 08:22:30;;;;;;;44.70;40.10;;;-0.30;88.80;;;;;;5072381;28;20288;-71
2022/01/27 08:24:57;;;;;;;157.23;52.67;;;-0.10;88.70;;;;;;5072420;28;20529;-71
2022/01/27 08:27:28;;;;;;;45.78;40.90;;;0.20;88.20;;;;;;5072458;28;20286;-71
2022/01/27 08:30:00;;;;;;;45.20;40.55;;;0.40;87.20;;;;;;5072107;28;20216;-71
2022/01/27 08:32:39;;;;;;;44.30;39.65;;;0.40;85.60;;;;;;5072326;28;20200;-71
2022/01/27 08:35:10;;;;;;;42.25;37.90;;;0.40;85.00;;;;;;5072329;28;20204;-71
2022/01/27 08:37:37;;;;;;;42.25;37.60;;;0.50;84.80;;;;;;5072208;28;20249;-71
2022/01/27 08:40:05;;;;;;;44.92;39.45;;;0.70;84.70;;;;;;5071939;28;20273;-71
2022/01/27 08:42:32;;;;;;;47.05;41.85;;;0.70;83.80;;;;;;5072128;28;20281;-71
2022/01/27 08:44:59;;;;;;;42.85;38.47;;;0.60;84.20;;;;;;5072238;28;20620;-71
2022/01/27 08:47:27;;;;;;;47.97;42.80;;;0.40;84.80;;;;;;5072106;28;20326;-71
2022/01/27 08:49:54;;;;;;;48.70;42.20;;;0.30;85.60;;;;;;5071816;28;20705;-71
2022/01/27 08:52:25;;;;;;;52.95;42.35;;;0.40;86.00;;;;;;5072318;28;20223;-72
2022/01/27 08:54:51;;;;;;;48.25;42.67;;;0.30;86.00;;;;;;5072044;28;20196;-71
2022/01/27 08:57:19;;;;;;;49.05;43.25;;;0.20;86.00;;;;;;5072092;28;20282;-71
2022/01/27 08:59:46;;;;;;;47.40;42.40;;;0.30;86.20;;;;;;5071730;28;20232;-71
2022/01/27 09:02:13;;;;;;;52.55;41.15;;;0.30;85.50;;;;;;5072036;28;20203;-71
2022/01/27 09:04:40;;;;;;;50.15;42.42;;;0.20;86.20;;;;;;5072084;28;20738;-72
2022/01/27 09:07:08;;;;;;;45.58;39.60;;;0.50;86.00;;;;;;5071611;28;20196;-71
2022/01/27 09:09:36;;;;;;;48.38;38.40;;;0.70;85.70;;;;;;5071711;28;20615;-72
2022/01/27 09:12:03;;;;;;;45.90;40.45;;;1.00;84.40;;;;;;5071767;28;20206;-72
2022/01/27 09:14:31;;;;;;;42.40;37.97;;;1.10;83.80;;;;;;5071765;28;20232;-72
2022/01/27 09:16:58;;;;;;;42.60;38.10;;;1.20;85.10;;;;;;5071838;28;20196;-72
2022/01/27 09:19:27;;;;;;;46.80;38.95;;;1.40;83.60;;;;;;5071568;28;20198;-71
2022/01/27 09:21:54;;;;;;;42.25;37.70;;;1.60;81.90;;;;;;5071988;28;20202;-71
2022/01/27 09:24:27;;;;;;;40.05;35.65;;;1.70;81.50;;;;;;5073798;28;20196;-71
2022/01/27 09:27:01;;;;;;;42.40;37.78;;;1.80;80.50;;;;;;5075429;28;20207;-71
2022/01/27 09:29:29;;;;;;;43.38;38.75;;;1.90;80.30;;;;;;5074909;28;20242;-71
2022/01/27 09:31:56;;;;;;;40.60;36.30;;;2.00;80.20;;;;;;5075183;28;20565;-71
2022/01/27 09:34:24;;;;;;;42.03;37.95;;;2.00;79.70;;;;;;5075203;28;20611;-71
2022/01/27 09:36:51;;;;;;;39.13;35.15;;;2.20;79.30;;;;;;5075080;28;20247;-71
2022/01/27 09:39:19;;;;;;;37.85;34.13;;;2.30;79.20;;;;;;5074786;28;20192;-71
2022/01/27 09:41:47;;;;;;;36.72;32.72;;;2.40;79.20;;;;;;5074953;28;20204;-71
2022/01/27 09:44:16;;;;;;;35.67;32.30;;;2.40;79.40;;;;;;5075077;28;20199;-71
2022/01/27 09:46:45;;;;;;;38.08;34.60;;;2.60;78.80;;;;;;5074977;28;20232;-71
2022/01/27 09:49:16;;;;;;;36.13;32.78;;;2.70;78.90;;;;;;5074518;28;20286;-71
2022/01/27 09:51:47;;;;;;;45.72;34.00;;;2.90;78.00;;;;;;5074842;28;20212;-71
2022/01/27 09:54:15;;;;;;;37.50;34.20;;;3.00;77.70;;;;;;5074753;28;20262;-72
2022/01/27 09:56:45;;;;;;;34.28;31.08;;;2.90;77.50;;;;;;5074807;28;20199;-72
2022/01/27 09:59:12;;;;;;;35.67;32.47;;;3.00;77.10;;;;;;5074679;28;20217;-71
2022/01/27 10:01:54;;;;;;;35.83;32.53;;;3.00;77.40;;;;;;5074762;28;20307;-71
2022/01/27 10:04:23;;;;;;;34.08;30.95;;;3.10;77.70;;;;;;5074633;28;20306;-72
2022/01/27 10:06:57;;;;;;;35.47;32.38;;;3.00;78.00;;;;;;5074361;28;20200;-71
2022/01/27 10:09:27;;;;;;;46.97;31.08;;;3.00;77.70;;;;;;5074225;28;20242;-71
2022/01/27 10:11:54;;;;;;;35.38;32.20;;;3.00;78.10;;;;;;5074390;28;20280;-72
2022/01/27 10:14:24;;;;;;;34.47;31.42;;;3.10;78.10;;;;;;5074477;28;20196;-72
2022/01/27 10:16:54;;;;;;;35.25;32.10;;;3.10;77.90;;;;;;5074285;28;20196;-71
2022/01/27 10:19:22;;;;;;;34.47;30.88;;;3.20;77.90;;;;;;5074031;28;20463;-71
2022/01/27 10:21:49;;;;;;;35.42;31.90;;;3.30;77.90;;;;;;5074374;28;20235;-71
2022/01/27 10:24:21;;;;;;;35.25;31.83;;;3.30;77.80;;;;;;5074267;28;20543;-72
2022/01/27 10:26:54;;;;;;;36.42;32.92;;;3.30;78.10;;;;;;5074236;28;20200;-72
2022/01/27 10:29:35;;;;;;;36.83;33.50;;;3.30;78.00;;;;;;5073687;28;20220;-71
2022/01/27 10:32:05;;;;;;;36.40;32.83;;;3.40;77.80;;;;;;5074262;28;20196;-72
2022/01/27 10:34:55;;;;;;;36.10;32.65;;;3.50;77.70;;;;;;5073968;28;20218;-71
2022/01/27 10:37:23;;;;;;;33.47;30.40;;;3.40;78.60;;;;;;5074016;28;20200;-72
2022/01/27 10:39:50;;;;;;;34.67;31.42;;;3.50;78.50;;;;;;5073594;28;20282;-71
2022/01/27 10:42:21;;;;;;;31.52;29.02;;;3.50;78.20;;;;;;5073961;28;20588;-71
2022/01/27 10:44:55;;;;;;;34.20;30.80;;;3.70;77.50;;;;;;5073979;28;20273;-71
2022/01/27 10:47:29;;;;;;;35.03;32.03;;;3.70;77.50;;;;;;5073780;28;20196;-71
2022/01/27 10:49:59;;;;;;;34.47;31.27;;;3.80;77.40;;;;;;5073501;28;20645;-71
2022/01/27 10:52:34;;;;;;;31.60;28.90;;;3.80;77.20;;;;;;5073738;28;20692;-72
2022/01/27 10:55:07;;;;;;;34.60;31.50;;;3.90;76.70;;;;;;5073624;28;20200;-71
2022/01/27 10:57:34;;;;;;;33.17;30.38;;;3.80;77.20;;;;;;5073596;28;20648;-71
2022/01/27 11:00:10;;;;;;;34.08;30.98;;;3.90;77.40;;;;;;5073214;28;20649;-71
2022/01/27 11:02:51;;;;;;;31.00;28.35;;;4.00;77.30;;;;;;5073807;28;20231;-72
2022/01/27 11:05:18;;;;;;;30.30;27.45;;;4.00;77.40;;;;;;5073372;28;20728;-71
2022/01/27 11:07:46;;;;;;;33.35;30.23;;;4.10;77.40;;;;;;5072958;28;20534;-72
2022/01/27 11:10:15;;;;;;;35.03;32.03;;;4.10;77.00;;;;;;5073278;28;20247;-71
2022/01/27 11:12:43;;;;;;;32.90;30.20;;;4.10;77.50;;;;;;5073253;28;20627;-72
2022/01/27 11:15:11;;;;;;;31.23;28.52;;;4.20;77.00;;;;;;5073207;28;20563;-71
2022/01/27 11:17:40;;;;;;;33.10;30.25;;;4.30;76.70;;;;;;5073057;28;20653;-72
2022/01/27 11:20:28;;;;;;;32.08;29.60;;;4.20;76.70;;;;;;5072801;28;20212;-71
2022/01/27 11:23:24;;;;;;;32.20;29.33;;;4.20;77.10;;;;;;5073179;28;20656;-72
2022/01/27 11:25:54;;;;;;;31.35;28.77;;;4.30;76.90;;;;;;5073008;28;20200;-72
2022/01/27 11:28:22;;;;;;;32.15;29.40;;;4.30;76.90;;;;;;5073065;28;20224;-72
2022/01/27 11:31:01;;;;;;;35.45;32.10;;;4.30;76.50;;;;;;5072656;28;20220;-72
2022/01/27 11:33:33;;;;;;;32.92;29.88;;;4.20;76.70;;;;;;5073113;28;20207;-72
2022/01/27 11:36:10;;;;;;;35.05;32.05;;;4.30;76.60;;;;;;5072923;28;20200;-72
2022/01/27 11:38:39;;;;;;;32.83;30.05;;;4.30;76.50;;;;;;5072871;28;20202;-72
2022/01/27 11:41:06;;;;;;;32.33;29.52;;;4.30;76.40;;;;;;5072688;28;20216;-71
2022/01/27 11:43:34;;;;;;;33.08;30.17;;;4.30;76.60;;;;;;5072652;28;20200;-72
2022/01/27 11:46:15;;;;;;;34.33;31.52;;;4.40;76.90;;;;;;5072366;28;20198;-72
2022/01/27 11:48:42;;;;;;;35.28;32.03;;;4.40;76.30;;;;;;5072510;28;20219;-72
2022/01/27 11:51:13;;;;;;;34.85;31.75;;;4.40;75.90;;;;;;5072620;28;20211;-72
2022/01/27 11:53:44;;;;;;;34.45;31.45;;;4.40;76.00;;;;;;5072777;28;20204;-72
2022/01/27 11:56:35;;;;;;;33.65;31.05;;;4.50;75.20;;;;;;5072689;28;20661;-72
2022/01/27 11:59:04;;;;;;;37.85;34.42;;;4.60;75.00;;;;;;5072359;28;20200;-72
2022/01/27 12:01:34;;;;;;;34.78;31.73;;;4.60;74.70;;;;;;5072391;28;20274;-72
2022/01/27 12:04:17;;;;;;;36.35;33.05;;;4.70;74.50;;;;;;5072548;28;20203;-72
2022/01/27 12:07:07;;;;;;;34.08;31.20;;;4.60;75.00;;;;;;5072473;28;20200;-72
2022/01/27 12:09:37;;;;;;;35.70;33.05;;;4.70;75.00;;;;;;5072235;28;20281;-71
2022/01/27 12:12:11;;;;;;;34.20;31.38;;;4.70;74.60;;;;;;5072406;28;20283;-72
2022/01/27 12:15:02;;;;;;;34.97;31.80;;;4.70;75.80;;;;;;5072549;28;20253;-72
2022/01/27 12:17:29;;;;;;;37.90;34.65;;;4.90;73.80;;;;;;5072375;28;20199;-72
2022/01/27 12:19:59;;;;;;;37.13;33.83;;;4.90;73.80;;;;;;5071837;28;20693;-71
2022/01/27 12:23:01;;;;;;;35.42;32.42;;;5.00;73.30;;;;;;5072547;28;20202;-72
2022/01/27 12:25:48;;;;;;;34.13;31.23;;;5.00;73.10;;;;;;5072381;28;20206;-72
2022/01/27 12:28:15;;;;;;;33.72;30.95;;;5.10;72.90;;;;;;5072157;28;20732;-71
2022/01/27 12:30:54;;;;;;;37.65;34.35;;;5.10;72.60;;;;;;5072217;28;20219;-72
2022/01/27 12:33:21;;;;;;;35.03;32.22;;;5.20;72.90;;;;;;5072447;28;20230;-72
2022/01/27 12:35:53;;;;;;;36.15;33.05;;;5.20;72.40;;;;;;5072255;28;20679;-71
2022/01/27 12:38:22;;;;;;;35.38;32.17;;;5.20;72.50;;;;;;5072226;28;20231;-71
2022/01/27 12:40:56;;;;;;;35.40;32.53;;;5.20;72.70;;;;;;5072004;28;20779;-71
2022/01/27 12:43:23;;;;;;;36.53;33.58;;;5.20;72.10;;;;;;5072619;28;20286;-72
2022/01/27 12:45:50;;;;;;;36.83;33.80;;;5.30;71.90;;;;;;5072063;28;20669;-71
2022/01/27 12:48:22;;;;;;;34.83;31.80;;;5.40;71.40;;;;;;5072353;28;20196;-71
2022/01/27 12:50:56;;;;;;;36.88;33.72;;;5.40;71.10;;;;;;5071985;28;20220;-71
2022/01/27 12:53:25;;;;;;;35.63;32.33;;;5.20;71.40;;;;;;5072257;28;20200;-71
2022/01/27 12:55:52;;;;;;;35.20;32.17;;;5.20;72.70;;;;;;5071973;28;20196;-72
2022/01/27 12:58:19;;;;;;;34.13;31.00;;;5.10;72.60;;;;;;5072643;28;20206;-72
2022/01/27 13:00:48;;;;;;;37.15;34.15;;;5.10;73.60;;;;;;5075605;28;20787;-72
2022/01/27 13:03:15;;;;;;;34.22;31.67;;;5.20;73.10;;;;;;5075990;28;20227;-72
2022/01/27 13:05:44;;;;;;;36.70;33.70;;;5.20;75.50;;;;;;5075619;28;20200;-72
2022/01/27 13:08:12;;;;;;;37.78;34.70;;;5.30;73.60;;;;;;5075506;28;20200;-72
2022/01/27 13:10:46;;;;;;;34.65;31.90;;;5.30;74.50;;;;;;5075394;28;20753;-71